createdAt,value
2019-04-26T00:00:24.586Z,17.60
2019-04-26T00:02:54.669Z,17.60
2019-04-26T00:05:34.005Z,17.50
2019-04-26T00:07:53.996Z,17.40
2019-04-26T00:10:29.796Z,17.50
2019-04-26T00:13:00.046Z,17.40
2019-04-26T00:15:46.460Z,17.40
2019-04-26T00:18:15.062Z,17.30
2019-04-26T00:20:43.542Z,17.20
2019-04-26T00:23:12.139Z,17.20
2019-04-26T00:25:40.793Z,17.10
2019-04-26T00:28:10.253Z,17.10
2019-04-26T00:30:39.476Z,17.10
2019-04-26T00:33:07.961Z,17.00
2019-04-26T00:35:46.935Z,16.90
2019-04-26T00:38:06.690Z,16.80
2019-04-26T00:40:35.302Z,16.80
2019-04-26T00:43:04.002Z,16.80
2019-04-26T00:45:34.316Z,16.70
2019-04-26T00:48:03.304Z,16.70
2019-04-26T00:50:33.001Z,16.60
2019-04-26T00:53:02.710Z,16.60
2019-04-26T00:55:31.914Z,16.60
2019-04-26T00:58:01.296Z,16.50
2019-04-26T01:00:29.805Z,16.50
2019-04-26T01:02:58.491Z,16.40
2019-04-26T01:05:28.311Z,16.30
2019-04-26T01:07:57.543Z,16.30
2019-04-26T01:10:26.067Z,16.20
2019-04-26T01:12:54.521Z,16.10
2019-04-26T01:15:23.279Z,16.10
2019-04-26T01:17:52.911Z,16.00
2019-04-26T01:20:24.667Z,15.90
2019-04-26T01:22:56.113Z,15.90
2019-04-26T01:25:39.841Z,15.90
2019-04-26T01:28:11.350Z,15.90
2019-04-26T01:30:40.146Z,15.90
2019-04-26T01:33:09.225Z,15.80
2019-04-26T01:35:38.109Z,15.80
2019-04-26T01:38:09.343Z,15.80
2019-04-26T01:40:38.442Z,15.70
2019-04-26T01:43:08.958Z,15.70
2019-04-26T01:46:00.015Z,15.60
2019-04-26T01:48:42.834Z,15.60
2019-04-26T01:51:14.374Z,15.60
2019-04-26T01:53:45.049Z,15.50
2019-04-26T01:56:14.822Z,15.40
2019-04-26T01:58:43.638Z,15.40
2019-04-26T02:01:19.438Z,15.40
2019-04-26T02:03:47.962Z,15.30
2019-04-26T02:06:25.330Z,15.30
2019-04-26T02:08:46.886Z,15.30
2019-04-26T02:11:15.455Z,15.10
2019-04-26T02:13:44.670Z,15.10
2019-04-26T02:16:13.184Z,15.00
2019-04-26T02:18:41.926Z,15.00
2019-04-26T02:21:26.139Z,15.00
2019-04-26T02:24:00.154Z,15.00
2019-04-26T02:26:32.558Z,15.00
2019-04-26T02:29:07.288Z,15.00
2019-04-26T02:31:37.824Z,15.00
2019-04-26T02:34:07.736Z,15.00
2019-04-26T02:36:54.633Z,14.90
2019-04-26T02:39:19.444Z,14.70
2019-04-26T02:41:50.237Z,14.70
2019-04-26T02:44:22.109Z,14.70
2019-04-26T02:47:11.480Z,14.70
2019-04-26T02:49:43.005Z,14.70
2019-04-26T02:52:20.304Z,14.70
2019-04-26T02:54:54.868Z,14.60
2019-04-26T02:57:32.659Z,14.60
2019-04-26T03:00:13.924Z,14.40
2019-04-26T03:02:45.427Z,14.50
2019-04-26T03:05:14.026Z,14.50
2019-04-26T03:07:51.213Z,14.40
2019-04-26T03:10:22.745Z,14.40
2019-04-26T03:12:54.035Z,14.40
2019-04-26T03:15:27.216Z,14.40
2019-04-26T03:18:00.438Z,14.40
2019-04-26T03:20:36.192Z,14.20
2019-04-26T03:23:16.802Z,14.20
2019-04-26T03:25:54.282Z,14.40
2019-04-26T03:28:34.584Z,14.50
2019-04-26T03:31:07.743Z,14.40
2019-04-26T03:33:54.135Z,14.40
2019-04-26T03:36:37.414Z,14.40
2019-04-26T03:39:17.345Z,14.30
2019-04-26T03:42:11.300Z,14.40
2019-04-26T03:45:03.777Z,14.30
2019-04-26T03:47:37.943Z,14.30
2019-04-26T03:50:11.279Z,14.30
2019-04-26T03:53:00.524Z,14.20
2019-04-26T03:55:37.865Z,14.10
2019-04-26T03:58:25.941Z,14.20
2019-04-26T04:00:58.241Z,14.20
2019-04-26T04:03:45.083Z,14.20
2019-04-26T04:06:17.662Z,14.20
2019-04-26T04:09:04.997Z,14.30
2019-04-26T04:11:38.456Z,14.40
2019-04-26T04:14:27.796Z,14.50
2019-04-26T04:17:06.699Z,14.70
2019-04-26T04:19:54.449Z,14.70
2019-04-26T04:22:26.037Z,14.80
2019-04-26T04:25:03.491Z,15.00
2019-04-26T04:27:41.963Z,15.10
2019-04-26T04:30:16.716Z,15.00
2019-04-26T04:33:02.928Z,15.00
2019-04-26T04:35:34.462Z,15.20
2019-04-26T04:38:22.282Z,15.30
2019-04-26T04:41:13.287Z,15.40
2019-04-26T04:44:13.543Z,15.60
2019-04-26T04:47:22.669Z,15.60
2019-04-26T04:49:47.014Z,15.90
2019-04-26T04:52:25.379Z,16.00
2019-04-26T04:55:06.613Z,16.20
2019-04-26T04:57:38.411Z,16.30
2019-04-26T05:00:17.105Z,16.40
2019-04-26T05:03:29.057Z,16.60
2019-04-26T05:06:07.766Z,16.60
2019-04-26T05:08:48.972Z,16.90
2019-04-26T05:11:23.051Z,17.20
2019-04-26T05:13:57.225Z,17.30
2019-04-26T05:16:48.350Z,17.10
2019-04-26T05:19:37.661Z,17.20
2019-04-26T05:22:25.421Z,17.40
2019-04-26T05:25:17.647Z,17.60
2019-04-26T05:28:24.960Z,17.70
2019-04-26T05:31:15.766Z,17.70
2019-04-26T05:33:50.355Z,18.10
2019-04-26T05:36:40.991Z,18.00
2019-04-26T05:39:12.511Z,18.30
2019-04-26T05:41:57.896Z,18.30
2019-04-26T05:44:33.814Z,18.80
2019-04-26T05:47:29.040Z,19.10
2019-04-26T05:50:19.548Z,19.10
2019-04-26T05:53:09.011Z,19.10
2019-04-26T05:55:47.610Z,19.50
2019-04-26T05:58:34.213Z,19.20
2019-04-26T06:01:10.339Z,19.50
2019-04-26T06:03:43.499Z,20.00
2019-04-26T06:06:25.152Z,20.30
2019-04-26T06:09:01.707Z,20.70
2019-04-26T06:11:46.707Z,21.30
2019-04-26T06:14:25.586Z,21.50
2019-04-26T06:17:14.734Z,21.00
2019-04-26T06:19:57.317Z,20.80
2019-04-26T06:22:47.350Z,20.50
2019-04-26T06:25:37.103Z,20.90
2019-04-26T06:28:23.961Z,20.70
2019-04-26T06:31:01.387Z,20.20
2019-04-26T06:33:32.936Z,20.20
2019-04-26T06:36:06.129Z,20.60
2019-04-26T06:39:02.150Z,21.60
2019-04-26T06:42:05.053Z,21.60
2019-04-26T06:45:06.844Z,22.10
2019-04-26T06:47:48.711Z,22.40
2019-04-26T06:50:21.903Z,22.60
2019-04-26T06:52:59.162Z,22.00
2019-04-26T06:55:49.525Z,22.40
2019-04-26T06:58:29.821Z,23.40
2019-04-26T07:01:14.319Z,23.90
2019-04-26T07:03:51.637Z,23.60
2019-04-26T07:06:56.059Z,24.00
2019-04-26T07:09:46.543Z,23.70
2019-04-26T07:12:28.542Z,24.10
2019-04-26T07:15:28.615Z,24.40
2019-04-26T07:18:04.424Z,24.30
2019-04-26T07:20:46.231Z,24.80
2019-04-26T07:23:37.040Z,24.20
2019-04-26T07:26:23.306Z,24.90
2019-04-26T07:29:12.766Z,25.10
2019-04-26T07:31:59.242Z,24.80
2019-04-26T07:35:02.752Z,24.40
2019-04-26T07:37:43.051Z,24.00
2019-04-26T07:40:49.148Z,24.80
2019-04-26T07:43:30.981Z,24.50
2019-04-26T07:46:17.098Z,23.60
2019-04-26T07:49:19.942Z,24.20
2019-04-26T07:52:19.748Z,24.60
2019-04-26T07:55:06.644Z,24.20
2019-04-26T07:57:50.144Z,24.80
2019-04-26T08:00:48.486Z,25.10
2019-04-26T08:03:30.634Z,25.40
2019-04-26T08:06:02.986Z,24.20
2019-04-26T08:08:44.304Z,23.90
2019-04-26T08:11:24.831Z,24.00
2019-04-26T08:14:11.164Z,23.40
2019-04-26T08:17:08.190Z,23.90
2019-04-26T08:19:39.881Z,24.80
2019-04-26T08:22:17.854Z,24.90
2019-04-26T08:24:44.175Z,24.60
2019-04-26T08:27:23.995Z,25.10
2019-04-26T08:29:54.461Z,25.50
2019-04-26T08:32:28.141Z,25.90
2019-04-26T08:35:08.119Z,27.00
2019-04-26T08:37:38.700Z,27.00
2019-04-26T08:40:07.955Z,27.30
2019-04-26T08:42:39.491Z,27.30
2019-04-26T08:45:15.277Z,27.70
2019-04-26T08:47:51.099Z,27.50
2019-04-26T08:50:27.540Z,27.60
2019-04-26T08:52:58.828Z,28.20
2019-04-26T08:55:29.610Z,28.70
2019-04-26T08:58:01.211Z,28.30
2019-04-26T09:00:45.983Z,28.40
2019-04-26T09:03:21.515Z,29.00
2019-04-26T09:05:53.645Z,28.70
2019-04-26T09:08:25.467Z,28.40
2019-04-26T09:10:57.005Z,27.90
2019-04-26T09:13:27.083Z,27.90
2019-04-26T09:15:58.608Z,28.50
2019-04-26T09:18:27.920Z,28.10
2019-04-26T09:20:56.472Z,28.60
2019-04-26T09:23:39.585Z,29.00
2019-04-26T09:26:03.938Z,28.90
2019-04-26T09:28:34.026Z,28.50
2019-04-26T09:31:21.144Z,28.20
2019-04-26T09:33:51.312Z,28.40
2019-04-26T09:36:20.163Z,28.40
2019-04-26T09:38:48.670Z,28.80
2019-04-26T09:41:17.194Z,28.40
2019-04-26T09:43:47.284Z,28.80
2019-04-26T09:46:26.252Z,28.40
2019-04-26T09:48:56.318Z,28.30
2019-04-26T09:51:24.876Z,29.20
2019-04-26T09:53:53.426Z,29.30
2019-04-26T09:56:21.899Z,29.00
2019-04-26T09:58:50.486Z,28.70
2019-04-26T10:01:19.655Z,29.10
2019-04-26T10:03:49.181Z,29.00
2019-04-26T10:06:17.778Z,28.20
2019-04-26T10:08:47.058Z,28.70
2019-04-26T10:11:18.123Z,29.70
2019-04-26T10:14:00.126Z,30.20
2019-04-26T10:16:42.446Z,29.00
2019-04-26T10:19:11.465Z,28.70
2019-04-26T10:21:40.025Z,29.60
2019-04-26T10:24:08.703Z,29.20
2019-04-26T10:26:37.223Z,29.00
2019-04-26T10:29:05.711Z,29.10
2019-04-26T10:31:34.284Z,28.70
2019-04-26T10:34:02.816Z,28.30
2019-04-26T10:36:31.499Z,28.10
2019-04-26T10:39:00.002Z,26.60
2019-04-26T10:41:28.447Z,26.70
2019-04-26T10:43:57.025Z,26.90
2019-04-26T10:46:28.368Z,27.30
2019-04-26T10:49:02.684Z,27.50
2019-04-26T10:51:27.599Z,28.10
2019-04-26T10:54:01.773Z,27.50
2019-04-26T10:56:31.953Z,27.40
2019-04-26T10:59:22.607Z,27.40
2019-04-26T11:01:50.122Z,27.70
2019-04-26T11:04:18.651Z,27.60
2019-04-26T11:06:47.183Z,27.90
2019-04-26T11:09:15.691Z,28.60
2019-04-26T11:11:44.160Z,28.90
2019-04-26T11:14:12.602Z,28.80
2019-04-26T11:16:42.198Z,29.10
2019-04-26T11:19:10.958Z,29.10
2019-04-26T11:21:39.418Z,29.90
2019-04-26T11:24:07.948Z,28.70
2019-04-26T11:26:36.396Z,28.40
2019-04-26T11:29:05.078Z,29.10
2019-04-26T11:31:33.592Z,29.10
2019-04-26T11:34:05.446Z,28.10
2019-04-26T11:36:32.210Z,27.70
2019-04-26T11:39:01.296Z,27.60
2019-04-26T11:41:34.013Z,27.60
2019-04-26T11:44:01.108Z,28.00
2019-04-26T11:46:30.315Z,28.30
2019-04-26T11:48:59.509Z,28.00
2019-04-26T11:51:29.272Z,27.70
2019-04-26T11:53:57.742Z,28.60
2019-04-26T11:56:26.360Z,28.70
2019-04-26T11:58:56.889Z,28.90
2019-04-26T12:01:26.831Z,28.30
2019-04-26T12:04:09.027Z,27.40
2019-04-26T12:06:42.066Z,27.40
2019-04-26T12:09:18.123Z,26.40
2019-04-26T12:11:50.866Z,26.40
2019-04-26T12:14:20.295Z,26.40
2019-04-26T12:16:51.013Z,26.50
2019-04-26T12:19:18.330Z,26.20
2019-04-26T12:21:47.269Z,25.50
2019-04-26T12:24:15.746Z,25.80
2019-04-26T12:26:46.303Z,26.40
2019-04-26T12:29:14.874Z,25.60
2019-04-26T12:31:44.141Z,25.40
2019-04-26T12:34:14.194Z,26.00
2019-04-26T12:36:42.805Z,25.60
2019-04-26T12:39:12.884Z,25.50
2019-04-26T12:41:41.415Z,24.80
2019-04-26T12:44:10.582Z,25.50
2019-04-26T12:46:40.714Z,25.60
2019-04-26T12:49:09.225Z,25.60
2019-04-26T12:51:38.562Z,25.20
2019-04-26T12:54:08.453Z,24.90
2019-04-26T12:56:37.175Z,24.90
2019-04-26T12:59:05.614Z,24.80
2019-04-26T13:01:34.083Z,24.20
2019-04-26T13:04:09.279Z,24.90
2019-04-26T13:06:39.610Z,25.10
2019-04-26T13:09:14.078Z,24.90
2019-04-26T13:12:00.172Z,24.90
2019-04-26T13:14:30.320Z,25.40
2019-04-26T13:17:05.856Z,25.80
2019-04-26T13:19:34.292Z,24.90
2019-04-26T13:22:02.842Z,25.00
2019-04-26T13:24:31.291Z,25.70
2019-04-26T13:26:59.734Z,24.70
2019-04-26T13:29:31.095Z,24.80
2019-04-26T13:31:58.360Z,24.30
2019-04-26T13:34:26.810Z,24.40
2019-04-26T13:36:55.245Z,24.60
2019-04-26T13:39:23.724Z,24.70
2019-04-26T13:42:02.102Z,24.50
2019-04-26T13:44:40.797Z,25.50
2019-04-26T13:47:16.384Z,26.20
2019-04-26T13:49:48.290Z,25.90
2019-04-26T13:52:16.816Z,24.60
2019-04-26T13:54:45.304Z,24.20
2019-04-26T13:57:13.753Z,23.50
2019-04-26T13:59:42.208Z,23.10
2019-04-26T14:02:11.957Z,23.10
2019-04-26T14:04:41.106Z,23.30
2019-04-26T14:07:10.997Z,23.00
2019-04-26T14:09:39.454Z,23.00
2019-04-26T14:12:18.333Z,22.60
2019-04-26T14:14:38.531Z,22.80
2019-04-26T14:17:07.116Z,22.60
2019-04-26T14:19:35.563Z,22.10
2019-04-26T14:22:07.166Z,22.40
2019-04-26T14:24:38.733Z,21.90
2019-04-26T14:27:15.043Z,22.20
2019-04-26T14:29:41.945Z,22.00
2019-04-26T14:32:10.427Z,21.90
2019-04-26T14:34:40.462Z,21.80
2019-04-26T14:37:11.083Z,21.90
2019-04-26T14:39:50.111Z,21.80
2019-04-26T14:42:09.471Z,21.40
2019-04-26T14:44:48.874Z,21.50
2019-04-26T14:47:14.959Z,21.40
2019-04-26T14:49:39.741Z,21.50
2019-04-26T14:52:08.575Z,21.50
2019-04-26T14:54:37.040Z,21.20
2019-04-26T14:57:10.320Z,20.90
2019-04-26T14:59:48.878Z,21.00
2019-04-26T15:02:22.747Z,20.60
2019-04-26T15:04:58.109Z,20.40
2019-04-26T15:07:28.250Z,20.60
2019-04-26T15:09:56.006Z,20.20
2019-04-26T15:12:24.458Z,20.70
2019-04-26T15:14:53.829Z,20.50
2019-04-26T15:17:26.453Z,20.80
2019-04-26T15:19:53.853Z,21.00
2019-04-26T15:22:22.854Z,21.00
2019-04-26T15:24:52.788Z,20.70
2019-04-26T15:27:21.230Z,20.60
2019-04-26T15:29:49.698Z,20.20
2019-04-26T15:32:18.232Z,20.20
2019-04-26T15:34:46.804Z,19.90
2019-04-26T15:37:16.264Z,19.60
2019-04-26T15:39:50.218Z,19.70
2019-04-26T15:42:30.235Z,19.60
2019-04-26T15:45:09.905Z,19.50
2019-04-26T15:47:58.301Z,19.60
2019-04-26T15:50:31.564Z,19.50
2019-04-26T15:53:00.027Z,19.40
2019-04-26T15:55:31.926Z,19.30
2019-04-26T15:58:02.649Z,19.20
2019-04-26T16:00:32.774Z,19.20
2019-04-26T16:03:05.970Z,19.10
2019-04-26T16:05:30.805Z,18.90
2019-04-26T16:08:03.214Z,18.80
2019-04-26T16:10:33.961Z,18.80
2019-04-26T16:13:01.282Z,18.60
2019-04-26T16:15:30.375Z,18.30
2019-04-26T16:17:58.819Z,18.30
2019-04-26T16:20:27.300Z,18.10
2019-04-26T16:22:55.795Z,18.00
2019-04-26T16:25:24.311Z,17.80
2019-04-26T16:28:10.049Z,17.60
2019-04-26T16:30:40.156Z,17.50
2019-04-26T16:33:10.261Z,17.50
2019-04-26T16:35:38.801Z,17.60
2019-04-26T16:38:24.962Z,17.60
2019-04-26T16:40:55.215Z,17.40
2019-04-26T16:43:36.605Z,17.30
2019-04-26T16:45:54.305Z,17.10
2019-04-26T16:48:25.666Z,17.00
2019-04-26T16:50:53.241Z,16.90
2019-04-26T16:53:42.871Z,16.90
2019-04-26T16:55:53.304Z,16.80
2019-04-26T16:58:24.687Z,16.70
2019-04-26T17:00:57.630Z,16.40
2019-04-26T17:03:25.944Z,16.50
2019-04-26T17:06:04.643Z,16.20
2019-04-26T17:08:23.561Z,15.90
2019-04-26T17:10:56.386Z,15.90
2019-04-26T17:13:25.539Z,15.90
2019-04-26T17:15:57.986Z,16.10
2019-04-26T17:18:23.886Z,16.00
2019-04-26T17:20:53.194Z,16.00
2019-04-26T17:23:30.110Z,15.90
2019-04-26T17:26:06.087Z,16.00
2019-04-26T17:28:34.762Z,15.80
2019-04-26T17:31:03.354Z,15.60
2019-04-26T17:33:32.640Z,15.70
2019-04-26T17:36:01.317Z,15.70
2019-04-26T17:38:31.178Z,15.70
2019-04-26T17:41:00.641Z,15.50
2019-04-26T17:43:30.553Z,15.40
2019-04-26T17:45:59.068Z,15.50
2019-04-26T17:48:27.542Z,15.40
2019-04-26T17:50:56.020Z,15.40
2019-04-26T17:53:30.822Z,15.40
2019-04-26T17:55:55.135Z,15.30
2019-04-26T17:58:30.855Z,15.30
2019-04-26T18:00:56.538Z,15.50
2019-04-26T18:03:24.433Z,15.40
2019-04-26T18:05:57.264Z,15.30
2019-04-26T18:08:35.864Z,15.20
2019-04-26T18:10:53.415Z,15.10
2019-04-26T18:13:21.883Z,14.90
2019-04-26T18:15:50.465Z,14.60
2019-04-26T18:18:38.465Z,14.80
2019-04-26T18:21:24.437Z,14.60
2019-04-26T18:23:57.024Z,14.80
2019-04-26T18:26:24.598Z,14.60
2019-04-26T18:28:55.129Z,14.40
2019-04-26T18:31:28.871Z,14.50
2019-04-26T18:33:54.880Z,14.50
2019-04-26T18:36:27.659Z,14.20
2019-04-26T18:38:54.044Z,14.30
2019-04-26T18:41:28.255Z,14.30
2019-04-26T18:43:55.585Z,14.30
2019-04-26T18:46:27.172Z,14.10
2019-04-26T18:48:55.637Z,14.00
2019-04-26T18:51:24.089Z,14.00
2019-04-26T18:53:54.173Z,14.00
2019-04-26T18:56:23.968Z,13.80
2019-04-26T18:58:52.454Z,13.40
2019-04-26T19:01:20.910Z,13.10
2019-04-26T19:03:49.582Z,12.90
2019-04-26T19:06:27.400Z,12.90
2019-04-26T19:08:50.448Z,12.70
2019-04-26T19:11:18.393Z,12.60
2019-04-26T19:13:51.526Z,12.60
2019-04-26T19:16:25.694Z,12.60
2019-04-26T19:19:04.742Z,12.40
2019-04-26T19:21:52.798Z,12.50
2019-04-26T19:24:21.105Z,12.30
2019-04-26T19:26:51.343Z,12.30
2019-04-26T19:29:27.026Z,12.40
2019-04-26T19:31:51.912Z,12.30
2019-04-26T19:34:21.787Z,12.20
2019-04-26T19:36:50.375Z,12.20
2019-04-26T19:39:22.804Z,12.20
2019-04-26T19:41:51.958Z,12.30
2019-04-26T19:44:22.151Z,12.40
2019-04-26T19:47:06.543Z,12.20
2019-04-26T19:49:52.397Z,12.40
2019-04-26T19:52:28.436Z,12.30
2019-04-26T19:54:58.539Z,12.20
2019-04-26T19:57:38.872Z,12.10
2019-04-26T20:00:08.073Z,12.10
2019-04-26T20:02:39.220Z,12.10
2019-04-26T20:05:07.875Z,12.10
2019-04-26T20:07:36.440Z,12.00
2019-04-26T20:10:05.772Z,11.80
2019-04-26T20:12:37.900Z,11.90
2019-04-26T20:15:07.496Z,11.30
2019-04-26T20:17:35.955Z,11.10
2019-04-26T20:20:16.860Z,11.10
2019-04-26T20:22:35.367Z,11.00
2019-04-26T20:25:04.323Z,11.00
2019-04-26T20:27:32.785Z,11.10
2019-04-26T20:30:02.339Z,11.00
2019-04-26T20:32:35.410Z,11.00
2019-04-26T20:35:13.823Z,10.90
2019-04-26T20:37:45.171Z,10.80
2019-04-26T20:40:20.349Z,11.00
2019-04-26T20:42:43.885Z,10.90
2019-04-26T20:45:16.578Z,11.10
2019-04-26T20:47:46.645Z,10.90
2019-04-26T20:50:13.928Z,10.70
2019-04-26T20:52:45.233Z,10.60
2019-04-26T20:55:13.806Z,10.30
2019-04-26T20:57:44.538Z,10.50
2019-04-26T21:00:13.154Z,10.40
2019-04-26T21:02:41.668Z,10.70
2019-04-26T21:05:13.177Z,10.80
2019-04-26T21:07:41.862Z,10.60
2019-04-26T21:10:14.552Z,10.50
2019-04-26T21:12:41.770Z,10.50
2019-04-26T21:15:11.584Z,10.60
2019-04-26T21:17:41.509Z,10.40
2019-04-26T21:20:10.242Z,10.40
2019-04-26T21:22:38.747Z,10.60
2019-04-26T21:25:27.642Z,10.40
2019-04-26T21:27:57.178Z,10.50
2019-04-26T21:30:33.631Z,10.40
2019-04-26T21:33:07.886Z,10.40
2019-04-26T21:35:40.927Z,10.50
2019-04-26T21:38:19.527Z,10.50
2019-04-26T21:41:08.902Z,10.30
2019-04-26T21:43:34.795Z,10.40
2019-04-26T21:46:07.844Z,10.70
2019-04-26T21:48:32.849Z,10.60
2019-04-26T21:51:03.026Z,10.60
2019-04-26T21:53:32.753Z,10.40
2019-04-26T21:56:03.034Z,10.50
2019-04-26T21:58:31.608Z,10.50
2019-04-26T22:01:04.841Z,10.40
2019-04-26T22:03:33.552Z,10.30
2019-04-26T22:06:02.016Z,10.40
2019-04-26T22:08:32.980Z,10.40
2019-04-26T22:11:03.582Z,10.30
2019-04-26T22:13:41.577Z,10.40
2019-04-26T22:16:30.636Z,10.40
2019-04-26T22:18:43.524Z,10.30
2019-04-26T22:21:14.534Z,10.30
2019-04-26T22:23:47.647Z,10.30
2019-04-26T22:26:17.603Z,10.20
2019-04-26T22:28:46.039Z,10.10
2019-04-26T22:31:14.505Z,10.00
2019-04-26T22:33:44.525Z,10.00
2019-04-26T22:36:13.257Z,10.20
2019-04-26T22:38:42.858Z,10.20
2019-04-26T22:41:13.324Z,10.20
2019-04-26T22:43:44.162Z,10.20
2019-04-26T22:46:28.213Z,10.40
2019-04-26T22:48:54.942Z,10.30
2019-04-26T22:51:23.158Z,10.20
2019-04-26T22:53:53.343Z,10.30
2019-04-26T22:56:23.213Z,10.30
2019-04-26T22:58:51.805Z,10.20
2019-04-26T23:01:20.239Z,10.10
2019-04-26T23:03:48.769Z,10.10
2019-04-26T23:06:17.210Z,10.00
2019-04-26T23:08:45.752Z,10.20
2019-04-26T23:11:14.270Z,10.10
2019-04-26T23:13:44.605Z,10.20
2019-04-26T23:16:14.701Z,10.20
2019-04-26T23:19:00.551Z,10.20
2019-04-26T23:21:33.870Z,10.20
2019-04-26T23:24:03.873Z,10.20
2019-04-26T23:26:33.471Z,10.20
2019-04-26T23:29:03.652Z,10.00
2019-04-26T23:31:33.457Z,10.10
2019-04-26T23:34:02.967Z,10.20
2019-04-26T23:36:31.486Z,10.30
2019-04-26T23:38:59.936Z,10.20
2019-04-26T23:41:28.383Z,10.00
2019-04-26T23:44:03.158Z,10.20
2019-04-26T23:46:26.989Z,10.20
2019-04-26T23:48:55.430Z,10.40
2019-04-26T23:51:26.138Z,10.20
2019-04-26T23:53:54.981Z,10.20
2019-04-26T23:56:25.273Z,10.10
2019-04-26T23:58:53.951Z,10.20
